TimeMST,TemperatureF,Dew PointF,Humidity,Sea Level PressureIn,VisibilityMPH,Wind Direction,Wind SpeedMPH,Gust SpeedMPH,PrecipitationIn,Events,Conditions,WindDirDegrees,DateUTC
12:15 AM,62.6,28.4,27,29.88,10.0,Calm,Calm,-,N/A,,Clear,0,2012-10-16 07:15:00
12:35 AM,62.6,26.6,26,29.88,10.0,Calm,Calm,-,N/A,,Clear,0,2012-10-16 07:35:00
12:55 AM,62.6,28.4,27,29.89,10.0,Calm,Calm,-,N/A,,Clear,0,2012-10-16 07:55:00
1:15 AM,62.6,28.4,27,29.88,10.0,Calm,Calm,-,N/A,,Clear,0,2012-10-16 08:15:00
1:35 AM,62.6,28.4,27,29.88,10.0,Calm,Calm,-,N/A,,Clear,0,2012-10-16 08:35:00
1:55 AM,60.8,28.4,29,29.88,10.0,Calm,Calm,-,N/A,,Clear,0,2012-10-16 08:55:00
2:15 AM,64.4,30.2,28,29.88,10.0,Calm,Calm,-,N/A,,Clear,0,2012-10-16 09:15:00
2:35 AM,64.4,32.0,30,29.87,10.0,Calm,Calm,-,N/A,,Clear,0,2012-10-16 09:35:00
2:55 AM,62.6,32.0,32,29.87,10.0,Calm,Calm,-,N/A,,Clear,0,2012-10-16 09:55:00
3:15 AM,60.8,32.0,34,29.87,10.0,Calm,Calm,-,N/A,,Clear,0,2012-10-16 10:15:00
3:35 AM,59.0,30.2,34,29.87,10.0,Calm,Calm,-,N/A,,Clear,0,2012-10-16 10:35:00
3:55 AM,59.0,30.2,34,29.87,10.0,Calm,Calm,-,N/A,,Clear,0,2012-10-16 10:55:00
4:15 AM,57.2,28.4,33,29.87,10.0,Calm,Calm,-,N/A,,Clear,0,2012-10-16 11:15:00
4:35 AM,57.2,30.2,36,29.88,10.0,Calm,Calm,-,N/A,,Clear,0,2012-10-16 11:35:00
5:15 AM,57.2,28.4,33,29.88,10.0,Calm,Calm,-,N/A,,Clear,0,2012-10-16 12:15:00
5:55 AM,57.2,28.4,33,29.88,10.0,Calm,Calm,-,N/A,,Clear,0,2012-10-16 12:55:00
6:15 AM,55.4,28.4,36,29.89,10.0,Calm,Calm,-,N/A,,Clear,0,2012-10-16 13:15:00
6:35 AM,57.2,28.4,33,29.89,10.0,Calm,Calm,-,N/A,,Clear,0,2012-10-16 13:35:00
6:55 AM,57.2,28.4,33,29.89,10.0,Calm,Calm,-,N/A,,Clear,0,2012-10-16 13:55:00
7:15 AM,59.0,28.4,31,29.90,10.0,Calm,Calm,-,N/A,,Clear,0,2012-10-16 14:15:00
7:35 AM,62.6,30.2,30,29.90,10.0,Calm,Calm,-,N/A,,Clear,0,2012-10-16 14:35:00
7:55 AM,64.4,30.2,28,29.91,10.0,Calm,Calm,-,N/A,,Clear,0,2012-10-16 14:55:00
8:15 AM,66.2,30.2,26,29.91,10.0,Calm,Calm,-,N/A,,Clear,0,2012-10-16 15:15:00
8:35 AM,66.2,30.2,26,29.92,10.0,Calm,Calm,-,N/A,,Clear,0,2012-10-16 15:35:00
8:55 AM,68.0,32.0,26,29.92,10.0,Calm,Calm,-,N/A,,Clear,0,2012-10-16 15:55:00
9:15 AM,69.8,33.8,27,29.92,10.0,Calm,Calm,-,N/A,,Clear,0,2012-10-16 16:15:00
9:35 AM,71.6,35.6,27,29.91,10.0,Calm,Calm,-,N/A,,Clear,0,2012-10-16 16:35:00
9:55 AM,73.4,37.4,27,29.91,10.0,Calm,Calm,-,N/A,,Clear,0,2012-10-16 16:55:00
10:15 AM,77.0,39.2,26,29.91,10.0,Calm,Calm,-,N/A,,Clear,0,2012-10-16 17:15:00
10:35 AM,78.8,39.2,24,29.91,9.0,Calm,Calm,-,N/A,,Clear,0,2012-10-16 17:35:00
10:55 AM,80.6,39.2,23,29.91,10.0,Calm,Calm,-,N/A,,Clear,0,2012-10-16 17:55:00
11:15 AM,80.6,37.4,21,29.89,10.0,Calm,Calm,-,N/A,,Clear,0,2012-10-16 18:15:00
11:35 AM,82.4,39.2,21,29.88,10.0,Calm,Calm,-,N/A,,Clear,0,2012-10-16 18:35:00
11:55 AM,82.4,39.2,21,29.87,10.0,Calm,Calm,-,N/A,,Clear,0,2012-10-16 18:55:00
12:15 PM,84.2,37.4,19,29.87,10.0,Calm,Calm,-,N/A,,Clear,0,2012-10-16 19:15:00
12:35 PM,86.0,37.4,18,29.85,10.0,Calm,Calm,-,N/A,,Clear,0,2012-10-16 19:35:00
12:55 PM,87.8,37.4,17,29.84,9.0,Calm,Calm,-,N/A,,Clear,0,2012-10-16 19:55:00
1:15 PM,87.8,37.4,17,29.83,9.0,Calm,Calm,-,N/A,,Clear,0,2012-10-16 20:15:00
1:35 PM,87.8,37.4,17,29.82,10.0,Calm,Calm,-,N/A,,Clear,0,2012-10-16 20:35:00
1:55 PM,87.8,37.4,17,29.81,10.0,Calm,Calm,-,N/A,,Clear,0,2012-10-16 20:55:00
2:15 PM,87.8,37.4,17,29.80,10.0,Calm,Calm,-,N/A,,Clear,0,2012-10-16 21:15:00
2:35 PM,89.6,37.4,16,29.80,10.0,Calm,Calm,-,N/A,,Clear,0,2012-10-16 21:35:00
2:55 PM,89.6,37.4,16,29.80,10.0,Calm,Calm,-,N/A,,Clear,0,2012-10-16 21:55:00
3:15 PM,89.6,39.2,17,29.78,10.0,Calm,Calm,-,N/A,,Clear,0,2012-10-16 22:15:00
3:35 PM,89.6,37.4,16,29.78,10.0,Calm,Calm,-,N/A,,Clear,0,2012-10-16 22:35:00
3:55 PM,89.6,37.4,16,29.78,10.0,West,4.6,-,N/A,,Clear,270,2012-10-16 22:55:00
4:15 PM,89.6,37.4,16,29.78,10.0,Calm,Calm,-,N/A,,Clear,0,2012-10-16 23:15:00
4:35 PM,89.6,37.4,16,29.78,10.0,Calm,Calm,-,N/A,,Clear,0,2012-10-16 23:35:00
4:55 PM,89.6,37.4,16,29.78,10.0,West,4.6,-,N/A,,Clear,280,2012-10-16 23:55:00
5:15 PM,87.8,37.4,17,29.77,10.0,Calm,Calm,-,N/A,,Clear,0,2012-10-17 00:15:00
5:35 PM,87.8,37.4,17,29.77,10.0,Calm,Calm,-,N/A,,Clear,0,2012-10-17 00:35:00
5:55 PM,84.2,37.4,19,29.77,10.0,Calm,Calm,-,N/A,,Clear,0,2012-10-17 00:55:00
6:15 PM,82.4,37.4,20,29.77,10.0,Calm,Calm,-,N/A,,Clear,0,2012-10-17 01:15:00
6:35 PM,80.6,37.4,21,29.78,10.0,Calm,Calm,-,N/A,,Clear,0,2012-10-17 01:35:00
6:55 PM,78.8,35.6,21,29.78,10.0,Calm,Calm,-,N/A,,Clear,0,2012-10-17 01:55:00
7:15 PM,75.2,35.6,24,29.79,10.0,Calm,Calm,-,N/A,,Clear,0,2012-10-17 02:15:00
7:35 PM,75.2,35.6,24,29.80,10.0,Calm,Calm,-,N/A,,Clear,0,2012-10-17 02:35:00
7:55 PM,73.4,35.6,25,29.80,10.0,Calm,Calm,-,N/A,,Clear,0,2012-10-17 02:55:00
8:15 PM,71.6,32.0,23,29.80,10.0,Calm,Calm,-,N/A,,Clear,0,2012-10-17 03:15:00
8:35 PM,71.6,32.0,23,29.80,10.0,Calm,Calm,-,N/A,,Clear,0,2012-10-17 03:35:00
8:55 PM,71.6,32.0,23,29.81,10.0,Calm,Calm,-,N/A,,Clear,0,2012-10-17 03:55:00
9:15 PM,69.8,32.0,25,29.81,10.0,Calm,Calm,-,N/A,,Clear,0,2012-10-17 04:15:00
9:35 PM,69.8,33.8,27,29.82,10.0,Calm,Calm,-,N/A,,Clear,0,2012-10-17 04:35:00
9:55 PM,66.2,33.8,30,29.82,10.0,Calm,Calm,-,N/A,,Clear,0,2012-10-17 04:55:00
10:15 PM,66.2,33.8,30,29.82,10.0,Calm,Calm,-,N/A,,Clear,0,2012-10-17 05:15:00
10:35 PM,66.2,33.8,30,29.82,10.0,Calm,Calm,-,N/A,,Clear,0,2012-10-17 05:35:00
10:55 PM,66.2,33.8,30,29.82,10.0,Calm,Calm,-,N/A,,Clear,0,2012-10-17 05:55:00
11:15 PM,64.4,32.0,30,29.82,10.0,Calm,Calm,-,N/A,,Clear,0,2012-10-17 06:15:00
11:35 PM,64.4,33.8,32,29.82,10.0,Calm,Calm,-,N/A,,Clear,0,2012-10-17 06:35:00
11:55 PM,64.4,33.8,32,29.81,10.0,Calm,Calm,-,N/A,,Clear,0,2012-10-17 06:55:00